Time;durP1;ratioP1;P1;durP2;ratioP2;P2;SDS_P1;SDS_P2;PMS_P1;PMS_P2;Temp;Humidity;BMP_temperature;BMP_pressure;BME280_temperature;BME280_humidity;BME280_pressure;Samples;Min_cycle;Max_cycle;Signal;HPM_P1;HPM_P2
2021/05/21 00:00:48;;;;;;;8.98;5.90;;;;;;;7.13;69.01;101035.38;1658682;85;21745;-80
2021/05/21 00:03:15;;;;;;;7.55;5.92;;;;;;;7.10;69.01;101038.27;1656978;85;21124;-80
2021/05/21 00:05:42;;;;;;;10.53;5.78;;;;;;;7.07;69.10;101022.41;1670280;85;21124;-81
2021/05/21 00:08:12;;;;;;;13.48;8.78;;;;;;;7.05;69.19;101024.08;1655877;84;21117;-81
2021/05/21 00:10:38;;;;;;;15.15;9.48;;;;;;;7.02;69.35;101024.84;1657392;85;21183;-81
2021/05/21 00:13:05;;;;;;;13.43;8.33;;;;;;;6.99;69.51;101021.66;1679820;85;21838;-81
2021/05/21 00:15:32;;;;;;;13.70;9.00;;;;;;;7.05;69.69;101025.38;1711708;82;21621;-81
2021/05/21 00:17:59;;;;;;;10.43;6.72;;;;;;;7.10;69.77;101031.72;1709821;82;21087;-81
2021/05/21 00:20:26;;;;;;;10.68;7.22;;;;;;;7.10;69.82;101022.14;1709574;83;21155;-80
2021/05/21 00:22:52;;;;;;;8.80;6.67;;;;;;;7.13;69.86;101016.13;1711078;82;21127;-80
2021/05/21 00:25:19;;;;;;;9.78;6.10;;;;;;;7.18;70.02;101010.26;1711379;83;22283;-80
2021/05/21 00:27:46;;;;;;;7.20;6.15;;;;;;;7.26;70.07;101005.77;1711765;83;21254;-80
2021/05/21 00:30:14;;;;;;;10.45;6.15;;;;;;;7.33;70.03;101003.89;1710997;82;21162;-80
2021/05/21 00:32:43;;;;;;;7.45;5.47;;;;;;;7.43;70.08;101007.79;1704242;83;21091;-80
2021/05/21 00:35:13;;;;;;;6.67;5.25;;;;;;;7.49;70.15;100999.78;1712095;83;21094;-80
2021/05/21 00:37:39;;;;;;;7.92;5.00;;;;;;;7.59;70.29;101004.56;1709695;82;21743;-80
2021/05/21 00:40:08;;;;;;;7.70;5.55;;;;;;;7.69;70.22;100999.70;1711505;83;21119;-80
2021/05/21 00:42:34;;;;;;;7.45;5.00;;;;;;;7.80;70.25;100998.41;1696463;83;21097;-80
2021/05/21 00:45:02;;;;;;;8.03;5.35;;;;;;;7.91;70.21;101001.03;1711852;83;21182;-80
2021/05/21 00:47:29;;;;;;;11.33;6.10;;;;;;;7.98;70.14;100997.83;1709740;83;21111;-80
2021/05/21 00:49:56;;;;;;;8.75;5.70;;;;;;;8.09;70.15;100996.03;1711502;82;21745;-80
2021/05/21 00:52:24;;;;;;;8.85;6.28;;;;;;;8.18;70.10;100995.08;1712105;82;21126;-80
2021/05/21 00:54:51;;;;;;;9.88;5.75;;;;;;;8.25;70.07;100997.10;1712355;82;21047;-80
2021/05/21 00:57:20;;;;;;;6.53;5.37;;;;;;;8.30;69.91;100986.37;1712372;83;21138;-80
2021/05/21 00:59:47;;;;;;;6.85;5.60;;;;;;;8.37;69.91;100982.24;1712071;82;21536;-80
2021/05/21 01:02:13;;;;;;;7.58;5.70;;;;;;;8.43;69.86;100971.12;1711535;83;22292;-80
2021/05/21 01:04:41;;;;;;;7.97;5.40;;;;;;;8.48;69.80;100973.08;1695928;82;21084;-80
2021/05/21 01:07:09;;;;;;;7.33;6.03;;;;;;;8.52;69.76;100964.51;1711894;83;21198;-81
2021/05/21 01:09:35;;;;;;;8.53;4.95;;;;;;;8.59;69.76;100962.98;1711441;83;21660;-81
2021/05/21 01:12:03;;;;;;;5.47;4.55;;;;;;;8.65;69.65;100965.86;1709543;82;21691;-80
2021/05/21 01:14:30;;;;;;;8.48;5.15;;;;;;;8.67;69.62;100956.30;1707394;82;22683;-81
2021/05/21 01:16:57;;;;;;;9.25;5.53;;;;;;;8.72;69.62;100961.27;1712070;83;21063;-81
2021/05/21 01:19:24;;;;;;;9.38;5.47;;;;;;;8.75;69.57;100953.52;1710595;82;21119;-81
2021/05/21 01:21:50;;;;;;;5.72;5.08;;;;;;;8.81;69.63;100950.22;1712478;83;21099;-81
2021/05/21 01:24:18;;;;;;;7.67;5.50;;;;;;;8.86;69.58;100955.22;1710872;83;21047;-81
2021/05/21 01:26:46;;;;;;;5.42;4.75;;;;;;;8.89;69.57;100955.31;1710992;82;22359;-81
2021/05/21 01:29:13;;;;;;;5.53;4.72;;;;;;;8.90;69.59;100940.05;1710936;83;21115;-81
2021/05/21 01:31:43;;;;;;;5.70;5.05;;;;;;;8.95;69.65;100949.37;1710821;83;21063;-80
2021/05/21 01:34:10;;;;;;;6.80;4.78;;;;;;;8.99;69.56;100948.67;1712451;82;21102;-82
2021/05/21 01:36:37;;;;;;;7.62;4.78;;;;;;;9.00;69.52;100946.93;1711677;83;21087;-83
2021/05/21 01:39:12;;;;;;;7.33;4.83;;;;;;;9.02;69.56;100946.56;1712010;82;21735;-83
2021/05/21 01:41:42;;;;;;;5.53;4.65;;;;;;;9.04;69.53;100939.63;1712290;83;21099;-83
2021/05/21 01:44:11;;;;;;;5.90;4.92;;;;;;;9.03;69.48;100940.05;1711611;83;21138;-83
2021/05/21 01:46:38;;;;;;;5.65;4.60;;;;;;;9.05;69.53;100938.37;1712587;83;21537;-83
2021/05/21 01:49:05;;;;;;;6.42;4.30;;;;;;;9.07;69.48;100939.31;1711021;82;21068;-82
2021/05/21 01:51:32;;;;;;;6.87;5.03;;;;;;;9.06;69.45;100933.57;1712485;83;22347;-83
2021/05/21 01:54:13;;;;;;;5.00;4.50;;;;;;;8.93;69.42;100916.53;1707008;82;21118;-82
2021/05/21 01:56:40;;;;;;;5.47;4.72;;;;;;;9.08;69.48;100938.87;1712550;83;21134;-82
2021/05/21 01:59:07;;;;;;;5.50;4.60;;;;;;;9.08;69.48;100938.87;1712368;82;21517;-82
2021/05/21 02:01:34;;;;;;;6.80;5.37;;;;;;;9.10;69.51;100934.17;1711600;82;21131;-82
2021/05/21 02:04:04;;;;;;;7.62;5.25;;;;;;;9.11;69.43;100932.00;1712226;82;21726;-82
2021/05/21 02:06:32;;;;;;;5.83;4.62;;;;;;;9.11;69.36;100921.92;1711109;83;21112;-82
2021/05/21 02:09:02;;;;;;;6.17;5.15;;;;;;;9.05;69.37;100916.05;1712204;83;21561;-82
2021/05/21 02:11:29;;;;;;;6.47;5.28;;;;;;;9.04;69.43;100919.93;1711290;83;21115;-81
2021/05/21 02:13:56;;;;;;;5.60;5.00;;;;;;;8.99;69.37;100911.91;1712527;83;21138;-82
2021/05/21 02:16:23;;;;;;;8.33;5.00;;;;;;;8.90;69.32;100908.55;1711024;82;22494;-83
2021/05/21 02:18:49;;;;;;;6.28;5.30;;;;;;;8.84;69.36;100910.97;1712501;83;21103;-81
2021/05/21 02:21:31;;;;;;;6.10;4.78;;;;;;;8.72;69.38;100904.84;1707803;83;21608;-83
2021/05/21 02:23:52;;;;;;;7.20;5.22;;;;;;;8.60;69.44;100901.81;1711139;82;21095;-83
2021/05/21 02:26:37;;;;;;;8.05;6.47;;;;;;;8.47;69.49;100908.34;1711702;83;21357;-82
2021/05/21 02:29:04;;;;;;;6.42;5.37;;;;;;;8.38;69.66;100905.36;1669244;85;22301;-82
2021/05/21 02:31:31;;;;;;;6.05;5.20;;;;;;;8.30;69.79;100898.95;1660718;83;21619;-82
2021/05/21 02:33:57;;;;;;;8.10;5.78;;;;;;;8.20;69.95;100899.00;1636721;85;21105;-82
2021/05/21 02:36:24;;;;;;;11.95;6.15;;;;;;;8.13;70.09;100897.02;1643482;86;21126;-82
2021/05/21 02:38:51;;;;;;;7.95;5.55;;;;;;;8.08;70.27;100889.39;1653475;84;21007;-82
2021/05/21 02:41:18;;;;;;;8.55;5.87;;;;;;;8.02;70.41;100889.17;1631919;86;21732;-82
2021/05/21 02:43:45;;;;;;;7.28;5.50;;;;;;;7.97;70.52;100888.55;1649976;86;21479;-82
2021/05/21 02:46:11;;;;;;;6.12;5.22;;;;;;;7.93;70.67;100882.73;1712994;83;21086;-81
2021/05/21 02:48:38;;;;;;;9.43;5.47;;;;;;;7.90;70.68;100883.02;1711858;83;21094;-82
2021/05/21 02:51:11;;;;;;;6.33;5.25;;;;;;;7.88;70.89;100887.31;1712090;83;21560;-81
2021/05/21 02:53:43;;;;;;;8.55;5.25;;;;;;;7.88;71.00;100888.23;1710932;83;21729;-82
2021/05/21 02:56:14;;;;;;;8.00;4.85;;;;;;;7.88;71.08;100875.13;1710649;83;21812;-81
2021/05/21 02:58:41;;;;;;;9.85;5.12;;;;;;;7.88;71.18;100875.13;1711762;83;21090;-81
2021/05/21 03:01:08;;;;;;;5.67;4.97;;;;;;;7.93;71.30;100875.29;1711516;83;21098;-82
2021/05/21 03:03:34;;;;;;;7.87;5.50;;;;;;;7.96;71.40;100872.37;1712484;83;21571;-81
2021/05/21 03:06:01;;;;;;;8.45;4.78;;;;;;;8.05;71.55;100869.21;1712391;83;22457;-80
2021/05/21 03:08:28;;;;;;;6.65;5.08;;;;;;;8.10;71.55;100867.63;1711717;83;21111;-82
2021/05/21 03:10:55;;;;;;;5.25;4.75;;;;;;;8.18;71.62;100863.58;1712558;82;21596;-82
2021/05/21 03:13:22;;;;;;;8.50;5.10;;;;;;;8.26;71.62;100864.25;1712128;83;21103;-82
2021/05/21 03:15:49;;;;;;;4.87;4.30;;;;;;;8.34;71.58;100864.13;1711752;83;21067;-82
2021/05/21 03:18:25;;;;;;;5.25;4.70;;;;;;;8.44;71.57;100860.13;1710753;82;21742;-82
2021/05/21 03:20:49;;;;;;;5.87;5.28;;;;;;;8.54;71.58;100857.89;1710506;83;21074;-82
2021/05/21 03:23:17;;;;;;;7.30;5.12;;;;;;;8.71;71.67;100849.71;1711462;83;21708;-83
2021/05/21 03:25:46;;;;;;;6.15;4.92;;;;;;;8.95;71.77;100846.98;1706250;83;21234;-83
2021/05/21 03:28:14;;;;;;;7.15;4.97;;;;;;;9.25;71.65;100844.89;1712833;82;21115;-83
2021/05/21 03:30:41;;;;;;;5.28;4.45;;;;;;;9.64;71.66;100843.04;1688713;83;21848;-83
2021/05/21 03:33:10;;;;;;;5.42;3.90;;;;;;;10.38;72.38;100844.78;1702382;82;21175;-84
2021/05/21 03:35:37;;;;;;;4.72;3.95;;;;;;;11.51;72.70;100830.00;1712346;83;21114;-83
2021/05/21 03:38:06;;;;;;;4.70;4.17;;;;;;;12.94;72.11;100831.48;1711711;82;21099;-84
2021/05/21 03:40:33;;;;;;;4.65;3.75;;;;;;;14.58;70.93;100824.91;1711932;83;21155;-84
2021/05/21 03:43:00;;;;;;;4.70;3.80;;;;;;;16.38;69.35;100816.27;1710753;82;21743;-84
2021/05/21 03:45:27;;;;;;;7.35;3.52;;;;;;;18.22;67.25;100809.36;1711940;83;21083;-84
2021/05/21 03:47:58;;;;;;;3.70;2.95;;;;;;;19.86;64.10;100803.97;1711908;83;21070;-84
2021/05/21 03:50:26;;;;;;;4.42;3.10;;;;;;;21.24;61.67;100802.35;1712119;82;21138;-85
2021/05/21 03:52:53;;;;;;;4.22;3.58;;;;;;;22.49;59.39;100806.08;1711594;82;21063;-85
2021/05/21 03:55:20;;;;;;;4.45;3.02;;;;;;;23.64;57.64;100799.09;1709776;82;21739;-84
2021/05/21 03:57:47;;;;;;;5.97;3.22;;;;;;;24.87;55.59;100806.60;1710956;82;21671;-86
2021/05/21 04:00:16;;;;;;;3.58;3.05;;;;;;;25.59;52.75;100808.61;1715547;81;21152;-84
2021/05/21 04:02:46;;;;;;;3.33;3.00;;;;;;;25.68;50.67;100802.01;1719042;80;21025;-84
2021/05/21 04:05:12;;;;;;;3.25;2.92;;;;;;;25.47;48.91;100803.20;1712291;82;21143;-85
2021/05/21 04:07:39;;;;;;;2.62;2.35;;;;;;;25.49;47.95;100799.98;1721815;80;21740;-83
2021/05/21 04:10:08;;;;;;;6.40;2.80;;;;;;;24.61;46.19;100798.91;1742999;80;21095;-84
2021/05/21 04:12:37;;;;;;;3.33;2.62;;;;;;;23.62;46.10;100794.22;1744352;80;21088;-83
2021/05/21 04:15:07;;;;;;;4.33;2.42;;;;;;;23.02;46.03;100796.28;1747171;80;21079;-83
2021/05/21 04:17:33;;;;;;;2.80;2.60;;;;;;;23.11;46.48;100788.02;1741088;80;21068;-83
2021/05/21 04:20:00;;;;;;;2.42;1.98;;;;;;;24.36;46.77;100794.76;1734803;80;21833;-84
2021/05/21 04:22:27;;;;;;;4.37;2.55;;;;;;;25.49;45.41;100786.95;1719721;83;21574;-86
2021/05/21 04:24:54;;;;;;;4.45;2.52;;;;;;;25.25;42.38;100782.87;1710225;81;20961;-85
2021/05/21 04:27:21;;;;;;;3.12;2.52;;;;;;;25.25;42.38;100782.87;1708785;82;21222;-85
2021/05/21 04:29:48;;;;;;;3.75;2.70;;;;;;;24.55;43.18;100785.66;1713201;82;21143;-84
2021/05/21 04:32:14;;;;;;;4.67;2.33;;;;;;;24.55;43.18;100785.66;1716887;82;21718;-84
2021/05/21 04:34:42;;;;;;;3.70;2.60;;;;;;;25.77;43.01;100780.06;1713161;83;21194;-84
2021/05/21 04:37:09;;;;;;;3.85;2.85;;;;;;;26.37;41.19;100780.02;1720502;82;21123;-83
2021/05/21 04:39:36;;;;;;;4.42;2.50;;;;;;;25.47;40.05;100785.69;1716516;81;21719;-83
2021/05/21 04:42:03;;;;;;;2.92;2.60;;;;;;;24.46;40.12;100789.96;1672796;84;21147;-83
2021/05/21 04:44:30;;;;;;;3.02;2.22;;;;;;;24.05;40.53;100784.94;1664154;85;21813;-85
2021/05/21 04:46:58;;;;;;;3.52;3.00;;;;;;;23.62;40.36;100771.86;1658703;85;21167;-85
2021/05/21 04:49:39;;;;;;;4.45;2.58;;;;;;;23.39;40.82;100778.76;1658346;85;21079;-86
2021/05/21 04:52:09;;;;;;;3.33;2.80;;;;;;;23.74;41.04;100775.52;1653287;86;21159;-86
2021/05/21 04:54:37;;;;;;;;;;;;;;;24.87;41.42;100776.08;1680735;84;21652;-86
2021/05/21 04:57:04;;;;;;;4.83;2.55;;;;;;;26.67;40.26;100770.29;1655187;86;21740;-85
2021/05/21 04:59:33;;;;;;;3.58;2.58;;;;;;;27.73;39.28;100767.48;1605422;87;21114;-80
2021/05/21 05:02:00;;;;;;;3.83;2.62;;;;;;;27.71;37.72;100764.84;1657142;85;21102;-85
2021/05/21 05:04:28;;;;;;;7.17;2.50;;;;;;;28.10;38.01;100761.24;1699193;83;21116;-86
2021/05/21 05:06:59;;;;;;;2.83;2.20;;;;;;;28.62;37.14;100761.01;1678161;84;21092;-85
2021/05/21 05:09:25;;;;;;;5.25;2.37;;;;;;;28.44;36.09;100759.59;1694583;83;21189;-85
2021/05/21 05:11:52;;;;;;;4.17;2.77;;;;;;;27.48;35.50;100762.30;1674072;85;21130;-85
2021/05/21 05:14:19;;;;;;;3.92;2.65;;;;;;;26.51;35.56;100756.98;1680459;85;21112;-87
2021/05/21 05:16:46;;;;;;;2.77;2.47;;;;;;;26.16;36.41;100761.97;1675173;85;21134;-84
2021/05/21 05:19:15;;;;;;;2.83;2.50;;;;;;;26.45;36.53;100754.55;1677790;85;21684;-85
2021/05/21 05:21:45;;;;;;;5.10;2.45;;;;;;;26.67;35.98;100751.84;1679143;84;21842;-85
2021/05/21 05:24:17;;;;;;;3.12;2.83;;;;;;;26.46;35.80;100751.75;1676259;84;21126;-85
2021/05/21 05:26:46;;;;;;;2.60;2.40;;;;;;;26.21;35.70;100757.76;1681016;84;21254;-85
2021/05/21 05:29:13;;;;;;;3.55;3.17;;;;;;;26.04;36.03;100748.52;1676120;84;21700;-85
2021/05/21 05:31:40;;;;;;;5.53;3.20;;;;;;;26.35;36.03;100745.47;1680082;85;21110;-85
2021/05/21 05:34:07;;;;;;;5.40;2.90;;;;;;;26.09;35.48;100744.27;1679463;85;21929;-85
2021/05/21 05:36:34;;;;;;;5.50;2.98;;;;;;;25.33;35.38;100748.92;1670775;85;21102;-85
2021/05/21 05:39:01;;;;;;;9.90;3.12;;;;;;;24.59;35.47;100744.73;1676586;85;21070;-84
2021/05/21 05:41:28;;;;;;;4.87;3.08;;;;;;;23.68;35.45;100738.08;1668172;85;21168;-84
2021/05/21 05:43:54;;;;;;;3.83;2.75;;;;;;;22.73;35.96;100743.34;1676754;84;21000;-85
2021/05/21 05:46:21;;;;;;;5.42;3.52;;;;;;;21.97;36.74;100741.55;1677720;85;21644;-85
2021/05/21 05:48:49;;;;;;;3.77;2.83;;;;;;;20.89;38.03;100744.55;1673267;84;21119;-84
2021/05/21 05:51:16;;;;;;;6.28;3.22;;;;;;;20.89;38.03;100744.55;1675190;84;21106;-85
2021/05/21 05:53:43;;;;;;;3.42;3.12;;;;;;;20.64;38.71;100744.07;1678088;84;21158;-85
2021/05/21 05:56:10;;;;;;;8.10;4.70;;;;;;;20.39;39.02;100735.54;1672347;84;21107;-84
2021/05/21 05:58:37;;;;;;;4.20;3.42;;;;;;;20.06;39.22;100734.25;1673567;84;22450;-85
2021/05/21 06:01:04;;;;;;;3.65;3.17;;;;;;;19.74;39.84;100737.78;1675810;83;21151;-84
2021/05/21 06:03:31;;;;;;;5.28;2.90;;;;;;;19.58;40.30;100733.07;1680049;84;21135;-85
2021/05/21 06:05:58;;;;;;;4.42;3.08;;;;;;;19.40;40.56;100734.16;1671524;84;21453;-84
2021/05/21 06:08:25;;;;;;;5.17;3.05;;;;;;;19.25;40.98;100730.80;1675503;84;21623;-84
2021/05/21 06:10:53;;;;;;;3.55;3.00;;;;;;;19.12;41.30;100730.92;1671719;85;21788;-84
2021/05/21 06:13:25;;;;;;;6.60;3.15;;;;;;;19.01;41.43;100727.05;1678247;85;21119;-85
2021/05/21 06:15:52;;;;;;;5.67;3.37;;;;;;;19.03;41.77;100720.34;1667987;84;21035;-84
2021/05/21 06:18:19;;;;;;;5.75;3.70;;;;;;;19.04;41.99;100720.79;1675463;85;21255;-84
2021/05/21 06:20:46;;;;;;;4.72;3.30;;;;;;;18.98;42.14;100718.20;1673235;84;22083;-85
2021/05/21 06:23:12;;;;;;;6.15;3.10;;;;;;;18.97;42.40;100715.95;1671927;84;21941;-84
2021/05/21 06:28:19;;;;;;;6.28;3.40;;;;;;;18.77;42.59;100716.56;1674661;84;21154;-84
2021/05/21 06:30:45;;;;;;;7.15;3.25;;;;;;;18.63;42.80;100714.03;1666681;85;22244;-85
2021/05/21 06:33:12;;;;;;;4.20;2.62;;;;;;;18.55;43.19;100710.56;1671755;85;21228;-84
2021/05/21 06:35:39;;;;;;;5.33;3.20;;;;;;;18.52;43.32;100715.45;1682220;84;21742;-84
2021/05/21 06:38:06;;;;;;;4.55;3.30;;;;;;;18.56;43.45;100717.22;1675110;84;21063;-84
2021/05/21 06:40:33;;;;;;;4.12;3.15;;;;;;;18.59;43.62;100711.84;1679163;84;21125;-85
2021/05/21 06:43:00;;;;;;;5.20;2.70;;;;;;;18.71;43.86;100706.83;1679316;84;21122;-85
2021/05/21 06:45:26;;;;;;;3.70;2.90;;;;;;;18.87;43.84;100704.95;1653920;85;21106;-85
2021/05/21 06:47:53;;;;;;;4.45;3.20;;;;;;;19.01;43.88;100700.80;1676367;85;22206;-85
2021/05/21 06:50:20;;;;;;;5.33;2.98;;;;;;;19.21;43.84;100702.80;1667999;85;21106;-85
2021/05/21 06:52:47;;;;;;;5.37;2.70;;;;;;;19.28;43.46;100694.75;1667927;85;21083;-84
2021/05/21 06:55:14;;;;;;;4.40;2.80;;;;;;;19.25;43.49;100696.98;1673434;85;21079;-84
2021/05/21 06:57:41;;;;;;;5.12;3.08;;;;;;;19.28;43.30;100700.09;1677821;84;21098;-85
2021/05/21 07:00:09;;;;;;;4.28;2.60;;;;;;;19.29;43.32;100693.38;1674863;85;22796;-85
2021/05/21 07:02:36;;;;;;;3.15;2.85;;;;;;;19.35;43.43;100681.73;1673016;85;21118;-84
2021/05/21 07:05:04;;;;;;;4.97;2.77;;;;;;;19.49;43.42;100685.13;1677488;85;21146;-85
2021/05/21 07:07:31;;;;;;;3.27;2.10;;;;;;;19.52;43.20;100684.20;1678501;83;21640;-84
2021/05/21 07:09:59;;;;;;;5.75;2.37;;;;;;;19.51;42.92;100685.98;1677985;85;21094;-84
2021/05/21 07:12:27;;;;;;;2.80;2.40;;;;;;;19.58;42.70;100678.80;1675221;85;21742;-85
2021/05/21 07:14:54;;;;;;;3.25;2.25;;;;;;;19.63;42.65;100672.92;1679809;84;21040;-85
2021/05/21 07:17:21;;;;;;;2.98;2.35;;;;;;;19.76;42.65;100678.59;1678340;84;21111;-85
2021/05/21 07:19:47;;;;;;;3.22;2.33;;;;;;;19.89;42.46;100673.92;1680659;84;21330;-85
2021/05/21 07:22:14;;;;;;;7.55;3.12;;;;;;;19.95;42.20;100670.28;1676497;85;21114;-84
2021/05/21 07:24:41;;;;;;;3.50;2.20;;;;;;;19.99;42.01;100670.23;1676433;85;21736;-85
2021/05/21 07:27:08;;;;;;;8.93;2.45;;;;;;;19.88;42.08;100667.30;1678675;85;21162;-84
2021/05/21 07:29:35;;;;;;;3.83;2.45;;;;;;;19.94;42.03;100666.73;1678079;84;21644;-84
2021/05/21 07:32:02;;;;;;;4.40;2.67;;;;;;;19.93;41.97;100668.09;1680918;84;21134;-85
2021/05/21 07:34:29;;;;;;;4.40;2.25;;;;;;;19.97;42.04;100663.13;1677501;84;21063;-85
2021/05/21 07:36:56;;;;;;;3.87;2.22;;;;;;;19.96;41.80;100659.58;1668917;85;21765;-85
2021/05/21 07:39:22;;;;;;;2.35;2.08;;;;;;;19.89;41.82;100653.89;1669380;85;21114;-84
2021/05/21 07:41:49;;;;;;;10.05;2.25;;;;;;;19.85;41.65;100653.52;1668262;85;21197;-84
2021/05/21 07:44:16;;;;;;;8.53;2.17;;;;;;;19.73;41.41;100645.70;1681253;85;21377;-84
2021/05/21 07:46:43;;;;;;;2.52;2.00;;;;;;;19.65;41.45;100656.42;1672891;85;21142;-85
2021/05/21 07:49:10;;;;;;;2.75;2.17;;;;;;;19.54;41.48;100638.33;1676020;85;21143;-85
2021/05/21 07:51:37;;;;;;;2.70;2.10;;;;;;;19.44;41.68;100637.58;1675300;85;21694;-85
2021/05/21 07:54:04;;;;;;;2.62;2.05;;;;;;;19.31;41.77;100639.98;1680568;85;21770;-85
2021/05/21 07:56:31;;;;;;;4.10;1.85;;;;;;;19.43;42.30;100638.50;1682337;84;21150;-86
2021/05/21 07:59:00;;;;;;;5.45;2.80;;;;;;;19.72;42.26;100636.78;1675881;85;21087;-85
2021/05/21 08:01:26;;;;;;;5.12;2.75;;;;;;;19.83;42.09;100632.63;1677621;84;22838;-85
2021/05/21 08:03:53;;;;;;;6.20;2.72;;;;;;;19.81;42.03;100631.77;1672178;84;21058;-85
2021/05/21 08:06:20;;;;;;;8.50;2.62;;;;;;;19.74;42.02;100622.95;1673142;84;21576;-85
2021/05/21 08:08:47;;;;;;;3.52;2.58;;;;;;;19.74;42.34;100627.41;1676448;85;21108;-86
2021/05/21 08:11:14;;;;;;;6.53;2.87;;;;;;;19.61;42.25;100603.55;1675545;84;21082;-83
2021/05/21 08:13:40;;;;;;;4.12;2.85;;;;;;;19.73;42.49;100617.66;1673329;84;22347;-84
2021/05/21 08:16:12;;;;;;;4.42;3.10;;;;;;;19.81;42.63;100615.28;1674128;85;21125;-84
2021/05/21 08:18:39;;;;;;;4.62;3.12;;;;;;;19.86;42.62;100614.31;1668349;84;21131;-84
2021/05/21 08:21:06;;;;;;;10.05;3.75;;;;;;;19.99;42.87;100610.58;1646141;85;23075;-85
2021/05/21 08:23:34;;;;;;;7.22;3.50;;;;;;;20.18;42.67;100604.47;1668189;84;21690;-85
2021/05/21 08:26:01;;;;;;;5.28;3.00;;;;;;;20.35;42.67;100607.73;1679142;85;22552;-85
2021/05/21 08:28:27;;;;;;;4.42;3.10;;;;;;;20.59;42.62;100602.86;1674838;84;21070;-84
2021/05/21 08:30:57;;;;;;;5.55;3.30;;;;;;;20.80;42.36;100601.59;1670696;85;21090;-83
2021/05/21 08:33:24;;;;;;;5.60;3.55;;;;;;;20.81;42.08;100592.63;1676452;85;21182;-84
2021/05/21 08:35:51;;;;;;;4.75;3.02;;;;;;;20.96;42.10;100590.11;1672858;85;21095;-84
2021/05/21 08:38:18;;;;;;;4.67;2.98;;;;;;;21.15;41.97;100588.83;1681152;83;21828;-85
2021/05/21 08:40:46;;;;;;;3.45;2.90;;;;;;;21.28;41.51;100578.71;1676691;84;21131;-85
2021/05/21 08:43:13;;;;;;;4.35;2.75;;;;;;;21.18;41.31;100582.52;1676710;84;21687;-85
2021/05/21 08:45:42;;;;;;;4.85;3.42;;;;;;;21.23;41.47;100572.60;1681254;84;21063;-86
2021/05/21 08:48:18;;;;;;;3.17;2.85;;;;;;;21.28;41.35;100576.03;1678435;83;21609;-86
2021/05/21 08:50:44;;;;;;;3.58;2.30;;;;;;;21.31;41.37;100567.95;1681617;84;21788;-85
2021/05/21 08:53:12;;;;;;;5.12;2.42;;;;;;;21.34;41.29;100565.22;1681023;84;21099;-85
2021/05/21 08:55:38;;;;;;;6.67;2.77;;;;;;;21.44;41.20;100559.66;1673315;84;21094;-86
2021/05/21 08:58:11;;;;;;;6.92;2.72;;;;;;;21.47;41.00;100553.80;1673385;85;21122;-85
2021/05/21 09:00:40;;;;;;;4.08;3.17;;;;;;;21.60;40.83;100553.03;1679405;85;21635;-85
2021/05/21 09:03:25;;;;;;;6.25;2.72;;;;;;;21.60;40.54;100543.66;1678665;84;21705;-85
2021/05/21 09:06:18;;;;;;;5.22;2.20;;;;;;;21.54;40.47;100542.00;1670409;84;21062;-85
2021/05/21 09:08:52;;;;;;;3.58;2.40;;;;;;;21.64;40.61;100534.66;1678025;85;21082;-85
2021/05/21 09:11:33;;;;;;;2.95;1.87;;;;;;;21.67;40.04;100529.20;1673398;85;21206;-85
2021/05/21 09:14:10;;;;;;;3.02;2.37;;;;;;;21.77;40.10;100527.17;1678385;85;21079;-86
2021/05/21 09:16:40;;;;;;;6.00;2.40;;;;;;;21.83;40.05;100529.72;1677050;84;21766;-84
2021/05/21 09:19:20;;;;;;;3.65;2.20;;;;;;;21.83;39.88;100528.38;1671781;84;21659;-85
2021/05/21 09:22:07;;;;;;;5.70;2.35;;;;;;;21.86;40.04;100520.25;1675465;84;21240;-84
2021/05/21 09:24:43;;;;;;;3.42;2.10;;;;;;;21.96;40.02;100507.52;1680241;83;21249;-84
2021/05/21 09:27:11;;;;;;;7.12;3.12;;;;;;;22.03;39.90;100506.88;1675331;84;21083;-84
2021/05/21 09:29:51;;;;;;;3.65;2.02;;;;;;;22.06;39.82;100502.32;1671668;85;22291;-85
2021/05/21 09:32:34;;;;;;;4.47;1.90;;;;;;;22.12;39.99;100507.98;1681518;84;21115;-85
2021/05/21 09:35:20;;;;;;;3.27;1.77;;;;;;;22.20;39.77;100508.64;1677382;83;21536;-85
2021/05/21 09:37:54;;;;;;;2.83;1.55;;;;;;;22.14;39.12;100500.30;1677918;84;21130;-85
2021/05/21 09:40:27;;;;;;;2.58;1.82;;;;;;;21.99;38.95;100502.05;1638554;85;21111;-85
2021/05/21 09:43:05;;;;;;;4.42;1.77;;;;;;;22.00;39.09;100498.91;1669608;85;22693;-85
2021/05/21 09:45:37;;;;;;;2.08;1.60;;;;;;;22.12;38.82;100495.91;1673557;84;21640;-85
2021/05/21 09:48:07;;;;;;;2.08;1.47;;;;;;;22.13;38.52;100490.52;1675453;85;21688;-85
2021/05/21 09:50:41;;;;;;;3.37;2.08;;;;;;;22.03;38.36;100487.65;1668309;85;21103;-86
2021/05/21 09:53:14;;;;;;;1.77;1.60;;;;;;;21.80;38.35;100490.94;1668482;85;21070;-85
2021/05/21 09:55:47;;;;;;;3.00;1.62;;;;;;;21.64;38.49;100482.86;1677627;85;21734;-85
2021/05/21 09:58:40;;;;;;;5.47;2.50;;;;;;;21.43;38.21;100479.76;1679053;84;21163;-84
2021/05/21 10:01:25;;;;;;;5.83;2.20;;;;;;;21.29;38.57;100473.41;1679003;84;21051;-85
2021/05/21 10:03:54;;;;;;;4.03;2.35;;;;;;;21.51;38.71;100471.13;1670648;85;21623;-85
2021/05/21 10:06:26;;;;;;;2.80;1.80;;;;;;;21.70;38.69;100469.34;1674361;85;21058;-85
2021/05/21 10:08:58;;;;;;;2.15;1.50;;;;;;;21.84;38.40;100467.16;1670934;85;22315;-85
2021/05/21 10:11:25;;;;;;;2.22;1.40;;;;;;;21.86;38.55;100466.66;1673666;84;21623;-85
2021/05/21 10:13:52;;;;;;;3.70;1.65;;;;;;;21.91;38.57;100467.89;1676053;84;21015;-84
2021/05/21 10:16:20;;;;;;;3.87;1.98;;;;;;;21.91;38.56;100462.53;1674952;85;21206;-85
2021/05/21 10:18:54;;;;;;;4.30;2.02;;;;;;;21.93;38.45;100468.73;1674387;84;21194;-86
2021/05/21 10:21:22;;;;;;;4.33;2.47;;;;;;;21.88;38.03;100466.63;1674208;84;21765;-84
2021/05/21 10:24:02;;;;;;;3.83;1.80;;;;;;;21.69;38.01;100472.92;1673884;85;21110;-85
2021/05/21 10:26:38;;;;;;;9.73;1.90;;;;;;;21.39;38.06;100473.19;1676541;84;21138;-86
2021/05/21 10:29:09;;;;;;;5.20;2.60;;;;;;;20.95;38.87;100461.27;1679906;84;21679;-84
2021/05/21 10:31:36;;;;;;;2.15;1.67;;;;;;;20.53;39.72;100450.10;1678014;84;21087;-84
2021/05/21 10:34:22;;;;;;;1.92;1.40;;;;;;;20.42;40.36;100446.77;1670848;84;22475;-84
2021/05/21 10:36:49;;;;;;;2.95;2.00;;;;;;;20.48;40.74;100438.61;1678892;84;21127;-84
2021/05/21 10:39:21;;;;;;;2.05;1.50;;;;;;;20.65;40.79;100440.09;1674272;84;21098;-85
2021/05/21 10:41:56;;;;;;;2.05;1.50;;;;;;;20.71;40.58;100446.17;1677758;84;21115;-84
2021/05/21 10:44:37;;;;;;;1.98;1.60;;;;;;;20.62;40.47;100445.50;1668235;85;21087;-84
2021/05/21 10:47:25;;;;;;;3.08;1.25;;;;;;;20.47;40.90;100438.17;1674125;85;21778;-84
2021/05/21 10:50:06;;;;;;;1.45;1.10;;;;;;;20.43;41.06;100432.94;1667223;84;21051;-84
2021/05/21 10:53:02;;;;;;;1.70;1.10;;;;;;;20.35;41.13;100425.95;1670456;84;21527;-85
2021/05/21 10:55:54;;;;;;;2.15;1.20;;;;;;;20.36;41.14;100419.71;1659156;85;21572;-85
2021/05/21 10:58:27;;;;;;;2.67;1.22;;;;;;;20.51;41.27;100402.44;1656451;85;21067;-84
2021/05/21 11:01:09;;;;;;;0.90;0.90;;;;;;;20.54;41.30;100396.16;1678414;85;22482;-84
2021/05/21 11:04:08;;;;;;;1.50;1.10;;;;;;;20.43;40.69;100389.70;1674310;84;21639;-85
2021/05/21 11:06:48;;;;;;;1.42;1.10;;;;;;;20.31;41.02;100390.84;1677578;84;21122;-84
2021/05/21 11:09:18;;;;;;;1.60;1.12;;;;;;;20.23;40.85;100378.08;1674770;85;21118;-84
2021/05/21 11:12:08;;;;;;;1.30;0.88;;;;;;;20.07;41.00;100377.53;1679443;85;21134;-84
2021/05/21 11:14:44;;;;;;;2.58;2.00;;;;;;;20.02;41.62;100378.07;1671045;84;21672;-83
2021/05/21 11:17:24;;;;;;;1.98;1.80;;;;;;;19.92;41.54;100363.15;1679846;85;21581;-84
2021/05/21 11:19:58;;;;;;;3.62;1.40;;;;;;;19.83;41.61;100357.98;1677956;83;21988;-84
2021/05/21 11:22:32;;;;;;;2.12;1.75;;;;;;;19.76;42.06;100356.77;1674896;84;21616;-84
2021/05/21 11:25:01;;;;;;;;;;;;;;;19.78;42.44;100355.38;1670736;85;21110;-83
2021/05/21 11:27:32;;;;;;;3.08;1.57;;;;;;;19.86;42.30;100355.23;1674382;85;21769;-83
2021/05/21 11:30:08;;;;;;;1.85;1.50;;;;;;;19.88;42.21;100350.77;1674283;83;21182;-84
2021/05/21 11:32:41;;;;;;;4.92;1.98;;;;;;;19.94;42.53;100347.50;1677565;84;21141;-85
2021/05/21 11:35:11;;;;;;;3.37;2.62;;;;;;;20.15;42.94;100341.30;1681106;85;21095;-83
2021/05/21 11:37:40;;;;;;;3.02;2.00;;;;;;;20.31;42.84;100336.48;1677769;84;21133;-84
2021/05/21 11:40:08;;;;;;;2.15;1.82;;;;;;;20.42;42.52;100324.23;1680200;83;22324;-85